sensor_id;sensor_type;location;lat;lon;timestamp;P1;durP1;ratioP1;P2;durP2;ratioP2
31746;SDS011;18319;48.974;8.462;2023-08-06T00:00:37;1.30;;;1.20;;
31746;SDS011;18319;48.974;8.462;2023-08-06T00:03:06;1.30;;;1.20;;
31746;SDS011;18319;48.974;8.462;2023-08-06T00:05:33;1.17;;;1.13;;
31746;SDS011;18319;48.974;8.462;2023-08-06T00:07:59;1.38;;;1.27;;
31746;SDS011;18319;48.974;8.462;2023-08-06T00:10:27;1.67;;;1.58;;
31746;SDS011;18319;48.974;8.462;2023-08-06T00:12:54;1.60;;;1.20;;
31746;SDS011;18319;48.974;8.462;2023-08-06T00:15:20;1.70;;;1.60;;
31746;SDS011;18319;48.974;8.462;2023-08-06T00:17:48;1.73;;;1.00;;
31746;SDS011;18319;48.974;8.462;2023-08-06T00:20:16;2.35;;;1.77;;
31746;SDS011;18319;48.974;8.462;2023-08-06T00:22:43;2.17;;;1.50;;
31746;SDS011;18319;48.974;8.462;2023-08-06T00:25:10;1.80;;;1.23;;
31746;SDS011;18319;48.974;8.462;2023-08-06T00:27:37;2.90;;;1.52;;
31746;SDS011;18319;48.974;8.462;2023-08-06T00:30:04;1.70;;;1.25;;
31746;SDS011;18319;48.974;8.462;2023-08-06T00:32:32;2.08;;;1.67;;
31746;SDS011;18319;48.974;8.462;2023-08-06T00:34:59;2.97;;;1.08;;
31746;SDS011;18319;48.974;8.462;2023-08-06T00:37:27;1.92;;;1.30;;
31746;SDS011;18319;48.974;8.462;2023-08-06T00:39:53;1.80;;;1.70;;
31746;SDS011;18319;48.974;8.462;2023-08-06T00:42:20;1.50;;;1.40;;
31746;SDS011;18319;48.974;8.462;2023-08-06T00:44:47;2.67;;;1.17;;
31746;SDS011;18319;48.974;8.462;2023-08-06T00:47:14;1.83;;;1.13;;
31746;SDS011;18319;48.974;8.462;2023-08-06T00:49:42;2.67;;;1.35;;
31746;SDS011;18319;48.974;8.462;2023-08-06T00:52:09;1.10;;;1.00;;
31746;SDS011;18319;48.974;8.462;2023-08-06T00:54:37;2.15;;;1.17;;
31746;SDS011;18319;48.974;8.462;2023-08-06T00:57:07;2.75;;;1.58;;
31746;SDS011;18319;48.974;8.462;2023-08-06T00:59:34;1.52;;;1.42;;
31746;SDS011;18319;48.974;8.462;2023-08-06T01:02:01;1.30;;;1.20;;
31746;SDS011;18319;48.974;8.462;2023-08-06T01:04:28;1.88;;;1.48;;
31746;SDS011;18319;48.974;8.462;2023-08-06T01:06:57;1.13;;;1.10;;
31746;SDS011;18319;48.974;8.462;2023-08-06T01:09:31;1.98;;;1.73;;
31746;SDS011;18319;48.974;8.462;2023-08-06T01:12:10;1.42;;;1.33;;
31746;SDS011;18319;48.974;8.462;2023-08-06T01:14:46;1.50;;;1.40;;
31746;SDS011;18319;48.974;8.462;2023-08-06T01:17:18;3.47;;;1.20;;
31746;SDS011;18319;48.974;8.462;2023-08-06T01:19:46;1.55;;;1.33;;
31746;SDS011;18319;48.974;8.462;2023-08-06T01:22:14;2.20;;;0.95;;
31746;SDS011;18319;48.974;8.462;2023-08-06T01:24:41;1.45;;;1.30;;
31746;SDS011;18319;48.974;8.462;2023-08-06T01:27:14;1.50;;;1.20;;
31746;SDS011;18319;48.974;8.462;2023-08-06T01:29:50;1.23;;;1.00;;
31746;SDS011;18319;48.974;8.462;2023-08-06T01:32:23;2.60;;;1.20;;
31746;SDS011;18319;48.974;8.462;2023-08-06T01:34:55;2.60;;;1.20;;
31746;SDS011;18319;48.974;8.462;2023-08-06T01:37:25;1.70;;;1.20;;
31746;SDS011;18319;48.974;8.462;2023-08-06T01:39:53;1.08;;;1.08;;
31746;SDS011;18319;48.974;8.462;2023-08-06T01:42:20;1.48;;;0.80;;
31746;SDS011;18319;48.974;8.462;2023-08-06T01:44:47;5.93;;;1.40;;
31746;SDS011;18319;48.974;8.462;2023-08-06T01:47:13;3.05;;;1.13;;
31746;SDS011;18319;48.974;8.462;2023-08-06T01:49:40;1.73;;;1.35;;
31746;SDS011;18319;48.974;8.462;2023-08-06T01:52:07;3.17;;;1.45;;
31746;SDS011;18319;48.974;8.462;2023-08-06T01:54:35;2.88;;;1.13;;
31746;SDS011;18319;48.974;8.462;2023-08-06T01:57:02;1.45;;;1.13;;
31746;SDS011;18319;48.974;8.462;2023-08-06T01:59:29;1.30;;;1.17;;
31746;SDS011;18319;48.974;8.462;2023-08-06T02:01:56;1.27;;;1.17;;
31746;SDS011;18319;48.974;8.462;2023-08-06T02:04:22;4.97;;;1.45;;
31746;SDS011;18319;48.974;8.462;2023-08-06T02:06:49;3.45;;;1.88;;
31746;SDS011;18319;48.974;8.462;2023-08-06T02:09:16;4.95;;;1.60;;
31746;SDS011;18319;48.974;8.462;2023-08-06T02:11:44;1.60;;;1.50;;
31746;SDS011;18319;48.974;8.462;2023-08-06T02:14:11;1.75;;;1.23;;
31746;SDS011;18319;48.974;8.462;2023-08-06T02:16:37;1.67;;;1.20;;
31746;SDS011;18319;48.974;8.462;2023-08-06T02:19:04;1.15;;;1.15;;
31746;SDS011;18319;48.974;8.462;2023-08-06T02:21:31;3.15;;;0.98;;
31746;SDS011;18319;48.974;8.462;2023-08-06T02:23:58;1.73;;;1.42;;
31746;SDS011;18319;48.974;8.462;2023-08-06T02:26:24;3.20;;;1.40;;
31746;SDS011;18319;48.974;8.462;2023-08-06T02:28:52;2.50;;;1.13;;
31746;SDS011;18319;48.974;8.462;2023-08-06T02:31:19;2.72;;;1.38;;
31746;SDS011;18319;48.974;8.462;2023-08-06T02:33:46;1.45;;;1.33;;
31746;SDS011;18319;48.974;8.462;2023-08-06T02:36:13;3.22;;;2.50;;
31746;SDS011;18319;48.974;8.462;2023-08-06T02:38:39;1.35;;;1.25;;
31746;SDS011;18319;48.974;8.462;2023-08-06T02:41:06;1.10;;;0.95;;
31746;SDS011;18319;48.974;8.462;2023-08-06T02:43:33;5.13;;;1.40;;
31746;SDS011;18319;48.974;8.462;2023-08-06T02:46:01;2.08;;;1.40;;
31746;SDS011;18319;48.974;8.462;2023-08-06T02:48:28;1.52;;;1.35;;
31746;SDS011;18319;48.974;8.462;2023-08-06T02:50:56;1.70;;;1.20;;
31746;SDS011;18319;48.974;8.462;2023-08-06T02:53:24;3.65;;;1.38;;
31746;SDS011;18319;48.974;8.462;2023-08-06T02:55:51;5.88;;;1.40;;
31746;SDS011;18319;48.974;8.462;2023-08-06T02:58:18;2.58;;;1.45;;
31746;SDS011;18319;48.974;8.462;2023-08-06T03:00:50;3.13;;;1.52;;
31746;SDS011;18319;48.974;8.462;2023-08-06T03:03:27;1.90;;;1.10;;
31746;SDS011;18319;48.974;8.462;2023-08-06T03:05:53;3.22;;;1.48;;
31746;SDS011;18319;48.974;8.462;2023-08-06T03:08:20;2.30;;;1.08;;
31746;SDS011;18319;48.974;8.462;2023-08-06T03:10:48;1.77;;;1.40;;
31746;SDS011;18319;48.974;8.462;2023-08-06T03:13:15;3.33;;;1.30;;
31746;SDS011;18319;48.974;8.462;2023-08-06T03:15:42;1.92;;;1.20;;
31746;SDS011;18319;48.974;8.462;2023-08-06T03:18:09;1.38;;;1.20;;
31746;SDS011;18319;48.974;8.462;2023-08-06T03:20:37;5.15;;;1.30;;
31746;SDS011;18319;48.974;8.462;2023-08-06T03:23:04;3.17;;;1.40;;
31746;SDS011;18319;48.974;8.462;2023-08-06T03:25:30;4.63;;;1.40;;
31746;SDS011;18319;48.974;8.462;2023-08-06T03:27:57;2.95;;;1.00;;
31746;SDS011;18319;48.974;8.462;2023-08-06T03:30:24;1.85;;;1.55;;
31746;SDS011;18319;48.974;8.462;2023-08-06T03:32:51;3.50;;;1.75;;
31746;SDS011;18319;48.974;8.462;2023-08-06T03:35:17;2.40;;;1.05;;
31746;SDS011;18319;48.974;8.462;2023-08-06T03:37:46;2.50;;;0.77;;
31746;SDS011;18319;48.974;8.462;2023-08-06T03:40:13;1.17;;;0.80;;
31746;SDS011;18319;48.974;8.462;2023-08-06T03:42:40;2.65;;;0.90;;
31746;SDS011;18319;48.974;8.462;2023-08-06T03:45:07;1.80;;;0.85;;
31746;SDS011;18319;48.974;8.462;2023-08-06T03:47:34;0.80;;;0.80;;
31746;SDS011;18319;48.974;8.462;2023-08-06T03:50:01;4.70;;;0.80;;
31746;SDS011;18319;48.974;8.462;2023-08-06T03:52:28;1.77;;;0.90;;
31746;SDS011;18319;48.974;8.462;2023-08-06T03:54:56;1.63;;;0.73;;
31746;SDS011;18319;48.974;8.462;2023-08-06T03:57:23;1.83;;;1.00;;
31746;SDS011;18319;48.974;8.462;2023-08-06T03:59:50;1.35;;;0.70;;
31746;SDS011;18319;48.974;8.462;2023-08-06T04:02:17;1.40;;;0.73;;
31746;SDS011;18319;48.974;8.462;2023-08-06T04:04:43;1.38;;;0.80;;
31746;SDS011;18319;48.974;8.462;2023-08-06T04:07:10;1.30;;;0.70;;
31746;SDS011;18319;48.974;8.462;2023-08-06T04:09:50;2.00;;;0.80;;
31746;SDS011;18319;48.974;8.462;2023-08-06T04:12:22;2.10;;;0.80;;
31746;SDS011;18319;48.974;8.462;2023-08-06T04:14:49;0.80;;;0.80;;
31746;SDS011;18319;48.974;8.462;2023-08-06T04:17:16;6.03;;;0.82;;
31746;SDS011;18319;48.974;8.462;2023-08-06T04:19:45;2.75;;;0.77;;
31746;SDS011;18319;48.974;8.462;2023-08-06T04:22:13;1.30;;;0.65;;
31746;SDS011;18319;48.974;8.462;2023-08-06T04:24:40;1.15;;;0.60;;
31746;SDS011;18319;48.974;8.462;2023-08-06T04:27:07;1.70;;;0.60;;
31746;SDS011;18319;48.974;8.462;2023-08-06T04:29:36;0.68;;;0.60;;
31746;SDS011;18319;48.974;8.462;2023-08-06T04:32:03;1.65;;;0.68;;
31746;SDS011;18319;48.974;8.462;2023-08-06T04:34:31;1.02;;;0.40;;
31746;SDS011;18319;48.974;8.462;2023-08-06T04:36:58;0.57;;;0.57;;
31746;SDS011;18319;48.974;8.462;2023-08-06T04:39:25;0.65;;;0.65;;
31746;SDS011;18319;48.974;8.462;2023-08-06T04:41:52;1.13;;;0.50;;
31746;SDS011;18319;48.974;8.462;2023-08-06T04:44:18;0.80;;;0.60;;
31746;SDS011;18319;48.974;8.462;2023-08-06T04:46:47;2.10;;;0.70;;
31746;SDS011;18319;48.974;8.462;2023-08-06T04:49:14;2.92;;;0.90;;
31746;SDS011;18319;48.974;8.462;2023-08-06T04:51:41;2.58;;;0.80;;
31746;SDS011;18319;48.974;8.462;2023-08-06T04:54:08;1.17;;;0.65;;
31746;SDS011;18319;48.974;8.462;2023-08-06T04:56:34;2.55;;;1.10;;
31746;SDS011;18319;48.974;8.462;2023-08-06T04:59:01;2.30;;;0.93;;
31746;SDS011;18319;48.974;8.462;2023-08-06T05:01:28;1.63;;;1.13;;
31746;SDS011;18319;48.974;8.462;2023-08-06T05:03:56;1.13;;;1.02;;
31746;SDS011;18319;48.974;8.462;2023-08-06T05:06:23;2.03;;;1.38;;
31746;SDS011;18319;48.974;8.462;2023-08-06T05:08:49;1.40;;;0.80;;
31746;SDS011;18319;48.974;8.462;2023-08-06T05:11:16;2.15;;;0.90;;
31746;SDS011;18319;48.974;8.462;2023-08-06T05:13:43;2.05;;;1.77;;
31746;SDS011;18319;48.974;8.462;2023-08-06T05:16:09;5.30;;;1.23;;
31746;SDS011;18319;48.974;8.462;2023-08-06T05:18:36;0.95;;;0.82;;
31746;SDS011;18319;48.974;8.462;2023-08-06T05:21:05;1.75;;;0.73;;
31746;SDS011;18319;48.974;8.462;2023-08-06T05:23:32;3.80;;;0.85;;
31746;SDS011;18319;48.974;8.462;2023-08-06T05:25:59;3.20;;;0.98;;
31746;SDS011;18319;48.974;8.462;2023-08-06T05:28:25;1.10;;;0.90;;
31746;SDS011;18319;48.974;8.462;2023-08-06T05:30:52;1.50;;;0.80;;
31746;SDS011;18319;48.974;8.462;2023-08-06T05:33:19;1.67;;;0.55;;
31746;SDS011;18319;48.974;8.462;2023-08-06T05:35:46;1.05;;;0.60;;
31746;SDS011;18319;48.974;8.462;2023-08-06T05:38:14;2.15;;;0.80;;
31746;SDS011;18319;48.974;8.462;2023-08-06T05:40:40;0.93;;;0.60;;
31746;SDS011;18319;48.974;8.462;2023-08-06T05:43:08;3.03;;;1.63;;
31746;SDS011;18319;48.974;8.462;2023-08-06T05:45:35;0.90;;;0.60;;
31746;SDS011;18319;48.974;8.462;2023-08-06T05:48:01;2.45;;;0.57;;
31746;SDS011;18319;48.974;8.462;2023-08-06T05:50:28;0.50;;;0.50;;
31746;SDS011;18319;48.974;8.462;2023-08-06T05:52:55;0.73;;;0.30;;
31746;SDS011;18319;48.974;8.462;2023-08-06T05:55:23;2.00;;;0.57;;
31746;SDS011;18319;48.974;8.462;2023-08-06T05:57:50;0.50;;;0.40;;
31746;SDS011;18319;48.974;8.462;2023-08-06T06:00:17;0.93;;;0.40;;
31746;SDS011;18319;48.974;8.462;2023-08-06T06:02:45;0.90;;;0.20;;
31746;SDS011;18319;48.974;8.462;2023-08-06T06:05:12;0.55;;;0.30;;
31746;SDS011;18319;48.974;8.462;2023-08-06T06:07:38;2.53;;;0.35;;
31746;SDS011;18319;48.974;8.462;2023-08-06T06:10:06;0.52;;;0.52;;
31746;SDS011;18319;48.974;8.462;2023-08-06T06:12:34;0.30;;;0.30;;
31746;SDS011;18319;48.974;8.462;2023-08-06T06:15:01;0.32;;;0.22;;
31746;SDS011;18319;48.974;8.462;2023-08-06T06:17:28;0.20;;;0.20;;
31746;SDS011;18319;48.974;8.462;2023-08-06T06:19:55;2.60;;;0.30;;
31746;SDS011;18319;48.974;8.462;2023-08-06T06:22:22;0.20;;;0.20;;
31746;SDS011;18319;48.974;8.462;2023-08-06T06:24:49;1.50;;;0.40;;
31746;SDS011;18319;48.974;8.462;2023-08-06T06:27:15;0.35;;;0.20;;
31746;SDS011;18319;48.974;8.462;2023-08-06T06:29:43;0.38;;;0.35;;
31746;SDS011;18319;48.974;8.462;2023-08-06T06:32:10;0.20;;;0.20;;
31746;SDS011;18319;48.974;8.462;2023-08-06T06:34:37;0.40;;;0.32;;
31746;SDS011;18319;48.974;8.462;2023-08-06T06:37:04;0.22;;;0.22;;
31746;SDS011;18319;48.974;8.462;2023-08-06T06:39:31;0.20;;;0.20;;
31746;SDS011;18319;48.974;8.462;2023-08-06T06:41:58;0.35;;;0.30;;
31746;SDS011;18319;48.974;8.462;2023-08-06T06:44:24;0.30;;;0.30;;
31746;SDS011;18319;48.974;8.462;2023-08-06T06:46:52;0.65;;;0.32;;
31746;SDS011;18319;48.974;8.462;2023-08-06T06:49:19;1.15;;;0.22;;
31746;SDS011;18319;48.974;8.462;2023-08-06T06:51:46;0.40;;;0.40;;
31746;SDS011;18319;48.974;8.462;2023-08-06T06:54:13;0.30;;;0.25;;
31746;SDS011;18319;48.974;8.462;2023-08-06T06:56:39;0.22;;;0.22;;
31746;SDS011;18319;48.974;8.462;2023-08-06T06:59:07;0.30;;;0.30;;
31746;SDS011;18319;48.974;8.462;2023-08-06T07:01:34;0.30;;;0.30;;
31746;SDS011;18319;48.974;8.462;2023-08-06T07:04:02;0.43;;;0.30;;
31746;SDS011;18319;48.974;8.462;2023-08-06T07:06:30;0.30;;;0.30;;
31746;SDS011;18319;48.974;8.462;2023-08-06T07:08:56;0.80;;;0.38;;
31746;SDS011;18319;48.974;8.462;2023-08-06T07:11:23;2.38;;;0.20;;
31746;SDS011;18319;48.974;8.462;2023-08-06T07:13:55;0.43;;;0.35;;
31746;SDS011;18319;48.974;8.462;2023-08-06T07:16:23;0.68;;;0.30;;
31746;SDS011;18319;48.974;8.462;2023-08-06T07:18:50;1.65;;;0.35;;
31746;SDS011;18319;48.974;8.462;2023-08-06T07:21:19;0.40;;;0.40;;
31746;SDS011;18319;48.974;8.462;2023-08-06T07:23:46;1.17;;;0.40;;
31746;SDS011;18319;48.974;8.462;2023-08-06T07:26:14;0.22;;;0.20;;
31746;SDS011;18319;48.974;8.462;2023-08-06T07:28:41;0.88;;;0.30;;
31746;SDS011;18319;48.974;8.462;2023-08-06T07:31:08;0.22;;;0.22;;
31746;SDS011;18319;48.974;8.462;2023-08-06T07:33:34;1.23;;;0.30;;
31746;SDS011;18319;48.974;8.462;2023-08-06T07:36:07;0.20;;;0.20;;
31746;SDS011;18319;48.974;8.462;2023-08-06T07:38:35;0.30;;;0.22;;
31746;SDS011;18319;48.974;8.462;2023-08-06T07:41:02;0.47;;;0.30;;
31746;SDS011;18319;48.974;8.462;2023-08-06T07:43:29;0.88;;;0.20;;
31746;SDS011;18319;48.974;8.462;2023-08-06T07:45:57;1.55;;;0.25;;
31746;SDS011;18319;48.974;8.462;2023-08-06T07:48:24;0.52;;;0.30;;
31746;SDS011;18319;48.974;8.462;2023-08-06T07:50:51;0.60;;;0.20;;
31746;SDS011;18319;48.974;8.462;2023-08-06T07:53:19;0.90;;;0.17;;
31746;SDS011;18319;48.974;8.462;2023-08-06T07:55:48;0.30;;;0.20;;
31746;SDS011;18319;48.974;8.462;2023-08-06T07:58:16;0.20;;;0.20;;
31746;SDS011;18319;48.974;8.462;2023-08-06T08:00:44;0.30;;;0.22;;
31746;SDS011;18319;48.974;8.462;2023-08-06T08:03:11;1.55;;;0.30;;
31746;SDS011;18319;48.974;8.462;2023-08-06T08:05:38;0.10;;;0.10;;
31746;SDS011;18319;48.974;8.462;2023-08-06T08:08:05;0.20;;;0.20;;
31746;SDS011;18319;48.974;8.462;2023-08-06T08:10:34;0.15;;;0.15;;
31746;SDS011;18319;48.974;8.462;2023-08-06T08:13:04;0.20;;;0.10;;
31746;SDS011;18319;48.974;8.462;2023-08-06T08:15:31;0.10;;;0.10;;
31746;SDS011;18319;48.974;8.462;2023-08-06T08:17:58;1.63;;;0.20;;
31746;SDS011;18319;48.974;8.462;2023-08-06T08:20:25;0.20;;;0.17;;
31746;SDS011;18319;48.974;8.462;2023-08-06T08:22:56;0.55;;;0.20;;
31746;SDS011;18319;48.974;8.462;2023-08-06T08:25:24;0.30;;;0.20;;
31746;SDS011;18319;48.974;8.462;2023-08-06T08:27:50;0.80;;;0.75;;
31746;SDS011;18319;48.974;8.462;2023-08-06T08:30:19;0.40;;;0.30;;
31746;SDS011;18319;48.974;8.462;2023-08-06T08:32:45;0.13;;;0.13;;
31746;SDS011;18319;48.974;8.462;2023-08-06T08:35:12;0.38;;;0.35;;
31746;SDS011;18319;48.974;8.462;2023-08-06T08:37:41;0.40;;;0.20;;
31746;SDS011;18319;48.974;8.462;2023-08-06T08:40:08;0.88;;;0.30;;
31746;SDS011;18319;48.974;8.462;2023-08-06T08:42:36;1.00;;;0.30;;
31746;SDS011;18319;48.974;8.462;2023-08-06T08:45:04;1.42;;;0.22;;
31746;SDS011;18319;48.974;8.462;2023-08-06T08:47:34;0.57;;;0.20;;
31746;SDS011;18319;48.974;8.462;2023-08-06T08:50:02;0.75;;;0.40;;
31746;SDS011;18319;48.974;8.462;2023-08-06T08:52:32;1.58;;;0.30;;
31746;SDS011;18319;48.974;8.462;2023-08-06T08:55:01;0.45;;;0.25;;
31746;SDS011;18319;48.974;8.462;2023-08-06T08:57:28;0.20;;;0.20;;
31746;SDS011;18319;48.974;8.462;2023-08-06T08:59:55;0.30;;;0.30;;
31746;SDS011;18319;48.974;8.462;2023-08-06T09:02:22;2.85;;;0.30;;
31746;SDS011;18319;48.974;8.462;2023-08-06T09:04:55;1.17;;;0.20;;
31746;SDS011;18319;48.974;8.462;2023-08-06T09:07:27;0.40;;;0.40;;
31746;SDS011;18319;48.974;8.462;2023-08-06T09:09:58;0.20;;;0.20;;
31746;SDS011;18319;48.974;8.462;2023-08-06T09:12:29;0.28;;;0.20;;
31746;SDS011;18319;48.974;8.462;2023-08-06T09:14:56;1.85;;;0.40;;
31746;SDS011;18319;48.974;8.462;2023-08-06T09:17:23;1.05;;;0.38;;
31746;SDS011;18319;48.974;8.462;2023-08-06T09:19:50;1.35;;;0.32;;
31746;SDS011;18319;48.974;8.462;2023-08-06T09:22:18;1.27;;;0.32;;
31746;SDS011;18319;48.974;8.462;2023-08-06T09:24:44;0.30;;;0.20;;
31746;SDS011;18319;48.974;8.462;2023-08-06T09:27:12;0.50;;;0.20;;
31746;SDS011;18319;48.974;8.462;2023-08-06T09:29:40;1.27;;;0.45;;
31746;SDS011;18319;48.974;8.462;2023-08-06T09:32:08;0.98;;;0.63;;
31746;SDS011;18319;48.974;8.462;2023-08-06T09:34:35;0.32;;;0.20;;
31746;SDS011;18319;48.974;8.462;2023-08-06T09:37:04;0.77;;;0.40;;
31746;SDS011;18319;48.974;8.462;2023-08-06T09:39:32;1.13;;;0.30;;
31746;SDS011;18319;48.974;8.462;2023-08-06T09:41:59;0.75;;;0.40;;
31746;SDS011;18319;48.974;8.462;2023-08-06T09:44:27;0.40;;;0.40;;
31746;SDS011;18319;48.974;8.462;2023-08-06T09:46:57;0.38;;;0.32;;
31746;SDS011;18319;48.974;8.462;2023-08-06T09:49:25;0.25;;;0.20;;
31746;SDS011;18319;48.974;8.462;2023-08-06T09:51:53;1.55;;;0.30;;
31746;SDS011;18319;48.974;8.462;2023-08-06T09:54:22;1.15;;;0.35;;
31746;SDS011;18319;48.974;8.462;2023-08-06T09:56:50;1.17;;;0.20;;
31746;SDS011;18319;48.974;8.462;2023-08-06T09:59:17;0.73;;;0.20;;
31746;SDS011;18319;48.974;8.462;2023-08-06T10:01:45;0.30;;;0.30;;
31746;SDS011;18319;48.974;8.462;2023-08-06T10:04:13;1.05;;;0.30;;
31746;SDS011;18319;48.974;8.462;2023-08-06T10:06:42;0.22;;;0.15;;
31746;SDS011;18319;48.974;8.462;2023-08-06T10:09:12;0.55;;;0.30;;
31746;SDS011;18319;48.974;8.462;2023-08-06T10:11:39;0.20;;;0.20;;
31746;SDS011;18319;48.974;8.462;2023-08-06T10:14:15;1.02;;;0.28;;
31746;SDS011;18319;48.974;8.462;2023-08-06T10:16:46;1.38;;;0.30;;
31746;SDS011;18319;48.974;8.462;2023-08-06T10:19:15;0.30;;;0.30;;
31746;SDS011;18319;48.974;8.462;2023-08-06T10:21:56;1.35;;;0.30;;
31746;SDS011;18319;48.974;8.462;2023-08-06T10:24:44;0.30;;;0.30;;
31746;SDS011;18319;48.974;8.462;2023-08-06T10:27:12;0.20;;;0.20;;
31746;SDS011;18319;48.974;8.462;2023-08-06T10:29:40;1.77;;;0.30;;
31746;SDS011;18319;48.974;8.462;2023-08-06T10:32:07;0.60;;;0.60;;
31746;SDS011;18319;48.974;8.462;2023-08-06T10:34:53;0.40;;;0.40;;
31746;SDS011;18319;48.974;8.462;2023-08-06T10:37:21;1.10;;;0.55;;
31746;SDS011;18319;48.974;8.462;2023-08-06T10:39:49;0.77;;;0.60;;
31746;SDS011;18319;48.974;8.462;2023-08-06T10:42:22;0.82;;;0.82;;
31746;SDS011;18319;48.974;8.462;2023-08-06T10:45:13;0.60;;;0.60;;
31746;SDS011;18319;48.974;8.462;2023-08-06T10:47:41;0.50;;;0.43;;
31746;SDS011;18319;48.974;8.462;2023-08-06T10:50:10;0.82;;;0.82;;
31746;SDS011;18319;48.974;8.462;2023-08-06T10:52:38;1.60;;;0.50;;
31746;SDS011;18319;48.974;8.462;2023-08-06T10:55:05;0.57;;;0.50;;
31746;SDS011;18319;48.974;8.462;2023-08-06T10:57:32;0.60;;;0.60;;
31746;SDS011;18319;48.974;8.462;2023-08-06T10:59:59;0.60;;;0.60;;
31746;SDS011;18319;48.974;8.462;2023-08-06T11:02:27;0.73;;;0.73;;
31746;SDS011;18319;48.974;8.462;2023-08-06T11:04:54;2.00;;;0.60;;
31746;SDS011;18319;48.974;8.462;2023-08-06T11:07:21;0.93;;;0.70;;
31746;SDS011;18319;48.974;8.462;2023-08-06T11:09:50;1.13;;;0.70;;
31746;SDS011;18319;48.974;8.462;2023-08-06T11:12:18;1.30;;;1.00;;
31746;SDS011;18319;48.974;8.462;2023-08-06T11:14:49;0.95;;;0.95;;
31746;SDS011;18319;48.974;8.462;2023-08-06T11:17:16;1.55;;;1.08;;
31746;SDS011;18319;48.974;8.462;2023-08-06T11:19:44;0.90;;;0.90;;
31746;SDS011;18319;48.974;8.462;2023-08-06T11:22:11;1.42;;;1.35;;
31746;SDS011;18319;48.974;8.462;2023-08-06T11:24:38;1.60;;;1.30;;
31746;SDS011;18319;48.974;8.462;2023-08-06T11:27:10;2.25;;;1.35;;
31746;SDS011;18319;48.974;8.462;2023-08-06T11:29:38;2.08;;;0.95;;
31746;SDS011;18319;48.974;8.462;2023-08-06T11:32:05;1.20;;;1.10;;
31746;SDS011;18319;48.974;8.462;2023-08-06T11:34:32;1.35;;;1.20;;
31746;SDS011;18319;48.974;8.462;2023-08-06T11:37:00;1.83;;;1.20;;
31746;SDS011;18319;48.974;8.462;2023-08-06T11:39:30;2.35;;;1.17;;
31746;SDS011;18319;48.974;8.462;2023-08-06T11:41:57;3.15;;;1.23;;
31746;SDS011;18319;48.974;8.462;2023-08-06T11:44:25;1.85;;;1.30;;
31746;SDS011;18319;48.974;8.462;2023-08-06T11:46:52;1.98;;;1.30;;
31746;SDS011;18319;48.974;8.462;2023-08-06T11:49:21;1.63;;;1.50;;
31746;SDS011;18319;48.974;8.462;2023-08-06T11:52:09;3.28;;;1.40;;
31746;SDS011;18319;48.974;8.462;2023-08-06T11:54:46;1.88;;;1.60;;
31746;SDS011;18319;48.974;8.462;2023-08-06T11:57:14;1.90;;;1.70;;
31746;SDS011;18319;48.974;8.462;2023-08-06T11:59:41;3.20;;;1.60;;
31746;SDS011;18319;48.974;8.462;2023-08-06T12:02:09;1.55;;;1.45;;
31746;SDS011;18319;48.974;8.462;2023-08-06T12:07:38;6.13;;;1.77;;
31746;SDS011;18319;48.974;8.462;2023-08-06T12:10:07;1.23;;;1.13;;
31746;SDS011;18319;48.974;8.462;2023-08-06T12:12:34;3.55;;;1.52;;
31746;SDS011;18319;48.974;8.462;2023-08-06T12:15:02;2.28;;;1.17;;
31746;SDS011;18319;48.974;8.462;2023-08-06T12:17:31;1.52;;;1.42;;
31746;SDS011;18319;48.974;8.462;2023-08-06T12:19:58;1.40;;;1.23;;
31746;SDS011;18319;48.974;8.462;2023-08-06T12:22:26;2.78;;;1.20;;
31746;SDS011;18319;48.974;8.462;2023-08-06T12:24:54;2.00;;;1.10;;
31746;SDS011;18319;48.974;8.462;2023-08-06T12:27:21;1.75;;;0.77;;
31746;SDS011;18319;48.974;8.462;2023-08-06T12:29:48;1.10;;;0.88;;
31746;SDS011;18319;48.974;8.462;2023-08-06T12:32:15;1.00;;;0.95;;
31746;SDS011;18319;48.974;8.462;2023-08-06T12:34:42;1.10;;;0.90;;
31746;SDS011;18319;48.974;8.462;2023-08-06T12:37:09;2.05;;;0.98;;
31746;SDS011;18319;48.974;8.462;2023-08-06T12:39:36;3.78;;;1.10;;
31746;SDS011;18319;48.974;8.462;2023-08-06T12:42:05;1.52;;;1.20;;
31746;SDS011;18319;48.974;8.462;2023-08-06T12:44:32;1.02;;;0.93;;
31746;SDS011;18319;48.974;8.462;2023-08-06T12:46:59;1.15;;;1.10;;
31746;SDS011;18319;48.974;8.462;2023-08-06T12:49:25;3.78;;;0.90;;
31746;SDS011;18319;48.974;8.462;2023-08-06T12:51:53;1.27;;;1.17;;
31746;SDS011;18319;48.974;8.462;2023-08-06T12:54:21;1.85;;;0.98;;
31746;SDS011;18319;48.974;8.462;2023-08-06T12:56:48;8.02;;;1.13;;
31746;SDS011;18319;48.974;8.462;2023-08-06T12:59:17;0.90;;;0.90;;
31746;SDS011;18319;48.974;8.462;2023-08-06T13:01:45;1.02;;;0.70;;
31746;SDS011;18319;48.974;8.462;2023-08-06T13:04:13;1.17;;;0.70;;
31746;SDS011;18319;48.974;8.462;2023-08-06T13:06:40;0.35;;;0.35;;
31746;SDS011;18319;48.974;8.462;2023-08-06T13:09:07;1.50;;;0.60;;
31746;SDS011;18319;48.974;8.462;2023-08-06T13:11:34;0.40;;;0.40;;
31746;SDS011;18319;48.974;8.462;2023-08-06T13:14:04;0.70;;;0.70;;
31746;SDS011;18319;48.974;8.462;2023-08-06T13:16:35;0.50;;;0.50;;
31746;SDS011;18319;48.974;8.462;2023-08-06T13:19:02;0.50;;;0.50;;
31746;SDS011;18319;48.974;8.462;2023-08-06T13:21:31;0.75;;;0.40;;
31746;SDS011;18319;48.974;8.462;2023-08-06T13:24:00;2.15;;;0.50;;
31746;SDS011;18319;48.974;8.462;2023-08-06T13:26:27;0.50;;;0.50;;
31746;SDS011;18319;48.974;8.462;2023-08-06T13:28:54;1.85;;;0.40;;
31746;SDS011;18319;48.974;8.462;2023-08-06T13:31:21;0.73;;;0.70;;
31746;SDS011;18319;48.974;8.462;2023-08-06T13:33:49;0.30;;;0.30;;
31746;SDS011;18319;48.974;8.462;2023-08-06T13:36:16;0.40;;;0.32;;
31746;SDS011;18319;48.974;8.462;2023-08-06T13:38:43;0.40;;;0.35;;
31746;SDS011;18319;48.974;8.462;2023-08-06T13:41:12;1.67;;;0.40;;
31746;SDS011;18319;48.974;8.462;2023-08-06T13:43:39;0.88;;;0.50;;
31746;SDS011;18319;48.974;8.462;2023-08-06T13:46:06;0.77;;;0.52;;
31746;SDS011;18319;48.974;8.462;2023-08-06T13:48:34;0.45;;;0.40;;
31746;SDS011;18319;48.974;8.462;2023-08-06T13:51:02;0.73;;;0.50;;
31746;SDS011;18319;48.974;8.462;2023-08-06T13:53:28;1.17;;;0.60;;
31746;SDS011;18319;48.974;8.462;2023-08-06T13:55:55;1.40;;;0.50;;
31746;SDS011;18319;48.974;8.462;2023-08-06T13:58:22;1.50;;;0.52;;
31746;SDS011;18319;48.974;8.462;2023-08-06T14:00:50;0.65;;;0.60;;
31746;SDS011;18319;48.974;8.462;2023-08-06T14:03:18;0.52;;;0.52;;
31746;SDS011;18319;48.974;8.462;2023-08-06T14:05:45;1.48;;;0.60;;
31746;SDS011;18319;48.974;8.462;2023-08-06T14:08:13;0.35;;;0.35;;
31746;SDS011;18319;48.974;8.462;2023-08-06T14:10:39;0.45;;;0.43;;
31746;SDS011;18319;48.974;8.462;2023-08-06T14:13:06;0.88;;;0.55;;
31746;SDS011;18319;48.974;8.462;2023-08-06T14:15:33;3.10;;;0.52;;
31746;SDS011;18319;48.974;8.462;2023-08-06T14:18:00;0.75;;;0.55;;
31746;SDS011;18319;48.974;8.462;2023-08-06T14:20:26;0.82;;;0.40;;
31746;SDS011;18319;48.974;8.462;2023-08-06T14:22:53;0.57;;;0.30;;
31746;SDS011;18319;48.974;8.462;2023-08-06T14:25:21;0.40;;;0.35;;
31746;SDS011;18319;48.974;8.462;2023-08-06T14:27:48;0.95;;;0.30;;
31746;SDS011;18319;48.974;8.462;2023-08-06T14:30:15;0.55;;;0.55;;
31746;SDS011;18319;48.974;8.462;2023-08-06T14:32:42;0.50;;;0.40;;
31746;SDS011;18319;48.974;8.462;2023-08-06T14:35:09;0.40;;;0.40;;
31746;SDS011;18319;48.974;8.462;2023-08-06T14:37:35;0.55;;;0.40;;
31746;SDS011;18319;48.974;8.462;2023-08-06T14:40:04;0.32;;;0.32;;
31746;SDS011;18319;48.974;8.462;2023-08-06T14:42:33;0.77;;;0.77;;
31746;SDS011;18319;48.974;8.462;2023-08-06T14:45:00;0.50;;;0.50;;
31746;SDS011;18319;48.974;8.462;2023-08-06T14:47:27;0.65;;;0.63;;
31746;SDS011;18319;48.974;8.462;2023-08-06T14:49:53;1.45;;;0.50;;
31746;SDS011;18319;48.974;8.462;2023-08-06T14:52:20;0.30;;;0.30;;
31746;SDS011;18319;48.974;8.462;2023-08-06T14:54:47;0.50;;;0.50;;